createdAt,value
2023-02-20T00:00:44.294Z,41.81
2023-02-20T00:01:44.290Z,42.02
2023-02-20T00:02:44.403Z,41.00
2023-02-20T00:03:44.268Z,40.47
2023-02-20T00:04:44.262Z,40.88
2023-02-20T00:05:44.241Z,40.26
2023-02-20T00:06:44.219Z,40.67
2023-02-20T00:07:44.224Z,40.36
2023-02-20T00:08:44.187Z,40.36
2023-02-20T00:09:44.182Z,40.78
2023-02-20T00:10:44.160Z,40.16
2023-02-20T00:11:44.154Z,39.95
2023-02-20T00:12:44.153Z,39.95
2023-02-20T00:13:44.122Z,39.04
2023-02-20T00:14:44.117Z,39.64
2023-02-20T00:15:44.145Z,39.23
2023-02-20T00:16:44.081Z,39.12
2023-02-20T00:17:44.100Z,39.33
2023-02-20T00:18:44.070Z,39.25
2023-02-20T00:19:44.051Z,39.56
2023-02-20T00:20:44.031Z,39.25
2023-02-20T00:21:44.031Z,39.23
2023-02-20T00:22:44.021Z,38.81
2023-02-20T00:23:43.992Z,39.25
2023-02-20T00:24:43.981Z,38.83
2023-02-20T00:25:43.972Z,38.83
2023-02-20T00:26:43.948Z,39.04
2023-02-20T00:27:43.961Z,38.52
2023-02-20T00:28:43.925Z,38.52
2023-02-20T00:29:43.922Z,38.52
2023-02-20T00:30:43.924Z,38.11
2023-02-20T00:31:43.927Z,38.09
2023-02-20T00:32:43.897Z,38.30
2023-02-20T00:33:43.876Z,38.81
2023-02-20T00:34:43.855Z,39.33
2023-02-20T00:35:43.842Z,39.33
2023-02-20T00:36:43.835Z,39.12
2023-02-20T00:37:43.826Z,39.43
2023-02-20T00:38:43.796Z,39.25
2023-02-20T00:39:43.807Z,38.73
2023-02-20T00:40:43.774Z,38.60
2023-02-20T00:41:43.768Z,39.12
2023-02-20T00:42:43.769Z,38.73
2023-02-20T00:43:43.738Z,38.42
2023-02-20T00:44:43.718Z,38.81
2023-02-20T00:45:43.727Z,38.60
2023-02-20T00:46:43.748Z,38.60
2023-02-20T00:47:43.689Z,38.60
2023-02-20T00:48:43.670Z,39.33
2023-02-20T00:49:43.658Z,38.71
2023-02-20T00:50:43.638Z,38.50
2023-02-20T00:51:43.630Z,38.40
2023-02-20T00:52:43.656Z,38.60
2023-02-20T00:53:43.619Z,38.30
2023-02-20T00:54:43.597Z,38.40
2023-02-20T00:55:43.583Z,38.60
2023-02-20T00:56:43.564Z,38.40
2023-02-20T00:57:43.571Z,38.60
2023-02-20T00:58:43.548Z,38.92
2023-02-20T00:59:43.530Z,38.81
2023-02-20T01:00:43.513Z,38.81
2023-02-20T01:01:43.559Z,38.71
2023-02-20T01:02:43.514Z,38.81
2023-02-20T01:03:43.478Z,38.92
2023-02-20T01:04:43.456Z,38.92
2023-02-20T01:05:43.439Z,38.81
2023-02-20T01:06:43.452Z,39.12
2023-02-20T01:07:43.419Z,39.33
2023-02-20T01:08:43.418Z,39.12
2023-02-20T01:09:43.390Z,39.43
2023-02-20T01:10:43.369Z,39.43
2023-02-20T01:11:43.361Z,39.33
2023-02-20T01:12:43.352Z,39.54
2023-02-20T01:13:43.347Z,38.92
2023-02-20T01:14:43.323Z,39.02
2023-02-20T01:15:43.370Z,39.23
2023-02-20T01:16:43.291Z,39.74
2023-02-20T01:17:43.282Z,39.54
2023-02-20T01:18:43.284Z,39.74
2023-02-20T01:19:43.258Z,39.33
2023-02-20T01:20:43.249Z,39.43
2023-02-20T01:21:43.228Z,39.33
2023-02-20T01:22:43.219Z,39.43
2023-02-20T01:23:43.215Z,39.54
2023-02-20T01:24:43.209Z,40.26
2023-02-20T01:25:43.177Z,40.16
2023-02-20T01:26:43.176Z,40.47
2023-02-20T01:27:43.149Z,40.16
2023-02-20T01:28:43.168Z,40.16
2023-02-20T01:29:43.136Z,39.33
2023-02-20T01:30:43.117Z,39.43
2023-02-20T01:31:43.198Z,39.12
2023-02-20T01:32:43.108Z,39.12
2023-02-20T01:33:43.074Z,39.23
2023-02-20T01:34:43.091Z,39.64
2023-02-20T01:35:43.042Z,39.23
2023-02-20T01:36:43.039Z,39.23
2023-02-20T01:37:43.023Z,39.23
2023-02-20T01:38:43.027Z,39.33
2023-02-20T01:39:43.022Z,39.43
2023-02-20T01:40:43.002Z,39.84
2023-02-20T01:41:42.990Z,39.95
2023-02-20T01:42:42.969Z,40.05
2023-02-20T01:43:42.943Z,40.16
2023-02-20T01:44:42.943Z,40.26
2023-02-20T01:45:42.915Z,40.36
2023-02-20T01:46:42.969Z,40.67
2023-02-20T01:47:42.897Z,40.67
2023-02-20T01:48:42.882Z,40.78
2023-02-20T01:49:42.875Z,41.08
2023-02-20T01:50:42.854Z,41.50
2023-02-20T01:51:42.842Z,41.39
2023-02-20T01:52:42.836Z,41.29
2023-02-20T01:53:42.818Z,41.50
2023-02-20T01:54:42.832Z,41.81
2023-02-20T01:55:42.788Z,42.02
2023-02-20T01:56:42.799Z,42.02
2023-02-20T01:57:42.758Z,42.10
2023-02-20T01:58:42.766Z,41.58
2023-02-20T01:59:42.751Z,42.10
2023-02-20T02:00:42.740Z,42.61
2023-02-20T02:01:42.772Z,42.93
2023-02-20T02:02:42.705Z,43.54
2023-02-20T02:03:42.676Z,43.75
2023-02-20T02:04:42.712Z,44.37
2023-02-20T02:05:42.655Z,44.68
2023-02-20T02:06:42.656Z,45.40
2023-02-20T02:07:42.657Z,45.61
2023-02-20T02:08:42.619Z,45.61
2023-02-20T02:09:42.623Z,46.53
2023-02-20T02:10:42.596Z,46.23
2023-02-20T02:11:42.575Z,46.02
2023-02-20T02:12:42.568Z,46.23
2023-02-20T02:13:42.544Z,46.12
2023-02-20T02:14:42.554Z,46.33
2023-02-20T02:15:45.315Z,46.64
2023-02-20T02:16:49.539Z,46.84
2023-02-20T02:17:42.505Z,46.97
2023-02-20T02:18:42.488Z,46.97
2023-02-20T02:19:42.488Z,47.07
2023-02-20T02:20:42.472Z,46.66
2023-02-20T02:21:42.455Z,46.56
2023-02-20T02:22:42.461Z,46.35
2023-02-20T02:23:42.418Z,46.45
2023-02-20T02:24:42.428Z,46.04
2023-02-20T02:25:42.408Z,46.14
2023-02-20T02:26:42.429Z,46.25
2023-02-20T02:27:42.393Z,46.35
2023-02-20T02:28:42.395Z,45.73
2023-02-20T02:29:42.358Z,45.73
2023-02-20T02:30:42.359Z,45.42
2023-02-20T02:31:42.449Z,44.90
2023-02-20T02:32:42.313Z,44.90
2023-02-20T02:33:42.304Z,44.70
2023-02-20T02:34:42.300Z,44.18
2023-02-20T02:35:42.278Z,44.49
2023-02-20T02:36:42.284Z,44.39
2023-02-20T02:37:42.257Z,44.18
2023-02-20T02:38:42.232Z,43.77
2023-02-20T02:39:42.241Z,44.08
2023-02-20T02:40:42.206Z,44.18
2023-02-20T02:41:42.179Z,44.39
2023-02-20T02:42:42.185Z,44.49
2023-02-20T02:43:42.197Z,45.11
2023-02-20T02:44:42.149Z,44.39
2023-02-20T02:45:42.206Z,44.49
2023-02-20T02:46:42.134Z,44.18
2023-02-20T02:47:42.100Z,44.39
2023-02-20T02:48:42.099Z,44.29
2023-02-20T02:49:42.079Z,44.08
2023-02-20T02:50:42.101Z,44.39
2023-02-20T02:51:42.069Z,44.49
2023-02-20T02:52:42.039Z,44.49
2023-02-20T02:53:42.019Z,44.29
2023-02-20T02:54:42.015Z,44.70
2023-02-20T02:55:42.031Z,44.59
2023-02-20T02:56:41.996Z,44.90
2023-02-20T02:57:41.980Z,44.90
2023-02-20T02:58:41.978Z,45.01
2023-02-20T02:59:41.959Z,44.70
2023-02-20T03:00:41.985Z,44.70
2023-02-20T03:01:41.918Z,44.49
2023-02-20T03:02:41.949Z,44.59
2023-02-20T03:03:41.897Z,44.49
2023-02-20T03:04:41.890Z,44.70
2023-02-20T03:05:41.879Z,44.08
2023-02-20T03:06:41.879Z,44.18
2023-02-20T03:07:41.844Z,44.49
2023-02-20T03:08:41.824Z,44.59
2023-02-20T03:09:41.807Z,44.80
2023-02-20T03:10:41.826Z,44.59
2023-02-20T03:11:41.781Z,45.01
2023-02-20T03:12:41.771Z,44.49
2023-02-20T03:13:41.784Z,44.70
2023-02-20T03:14:41.777Z,44.70
2023-02-20T03:15:41.747Z,44.59
2023-02-20T03:16:41.780Z,44.59
2023-02-20T03:17:41.730Z,44.18
2023-02-20T03:18:41.698Z,44.29
2023-02-20T03:19:41.681Z,44.29
2023-02-20T03:23:32.435Z,44.49
2023-02-20T03:24:32.396Z,43.87
2023-02-20T03:25:32.387Z,43.87
2023-02-20T03:26:32.394Z,44.08
2023-02-20T03:27:32.366Z,43.98
2023-02-20T03:28:32.348Z,43.98
2023-02-20T03:29:32.337Z,43.98
2023-02-20T03:30:32.348Z,44.59
2023-02-20T03:31:32.377Z,44.39
2023-02-20T03:32:32.302Z,44.80
2023-02-20T03:33:32.297Z,45.01
2023-02-20T03:34:32.258Z,45.01
2023-02-20T03:35:32.259Z,45.01
2023-02-20T03:36:32.324Z,45.21
2023-02-20T03:37:32.253Z,45.42
2023-02-20T03:38:32.211Z,45.63
2023-02-20T03:39:32.220Z,45.73
2023-02-20T03:40:32.190Z,46.14
2023-02-20T03:41:32.222Z,46.45
2023-02-20T03:42:32.169Z,46.64
2023-02-20T03:44:42.866Z,47.16
2023-02-20T03:45:42.894Z,47.07
2023-02-20T03:46:42.833Z,47.28
2023-02-20T03:47:42.825Z,47.49
2023-02-20T03:48:42.815Z,47.16
2023-02-20T03:49:42.876Z,47.90
2023-02-20T03:50:42.756Z,48.08
2023-02-20T03:51:42.763Z,49.01
2023-02-20T03:52:42.733Z,49.43
2023-02-20T03:53:42.708Z,48.93
2023-02-20T03:54:42.706Z,48.70
2023-02-20T03:55:42.685Z,49.04
2023-02-20T03:56:42.680Z,49.11
2023-02-20T03:57:42.666Z,49.44
2023-02-20T03:58:42.657Z,49.24
2023-02-20T03:59:42.627Z,48.80
2023-02-20T04:00:42.614Z,49.11
2023-02-20T04:01:42.634Z,49.24
2023-02-20T04:02:42.627Z,49.55
2023-02-20T04:03:42.567Z,49.14
2023-02-20T04:04:42.576Z,49.14
2023-02-20T04:05:42.549Z,48.93
2023-02-20T04:06:42.532Z,48.93
2023-02-20T04:07:42.533Z,49.34
2023-02-20T04:08:42.511Z,49.34
2023-02-20T04:09:42.520Z,48.93
2023-02-20T04:10:42.481Z,48.72
2023-02-20T04:11:42.480Z,48.52
2023-02-20T04:12:42.465Z,48.31
2023-02-20T04:13:42.457Z,48.21
2023-02-20T04:14:42.435Z,48.21
2023-02-20T04:15:42.434Z,47.80
2023-02-20T04:16:42.465Z,47.90
2023-02-20T04:17:42.386Z,47.90
2023-02-20T04:18:42.369Z,47.59
2023-02-20T04:19:42.421Z,47.69
2023-02-20T04:20:42.373Z,47.59
2023-02-20T04:21:42.358Z,47.69
2023-02-20T04:22:42.341Z,47.28
2023-02-20T04:23:42.324Z,47.59
2023-02-20T04:24:42.321Z,47.28
2023-02-20T04:25:42.320Z,47.80
2023-02-20T04:26:42.303Z,47.38
2023-02-20T04:27:42.270Z,48.00
2023-02-20T04:28:42.271Z,47.49
2023-02-20T04:29:42.286Z,47.80
2023-02-20T04:30:42.358Z,47.80
2023-02-20T04:31:42.225Z,47.90
2023-02-20T04:32:42.210Z,47.90
2023-02-20T04:33:42.198Z,48.31
2023-02-20T04:34:42.181Z,48.10
2023-02-20T04:35:42.164Z,47.80
2023-02-20T04:36:42.164Z,47.80
2023-02-20T04:37:42.397Z,48.00
2023-02-20T04:38:42.108Z,47.80
2023-02-20T04:39:42.141Z,47.80
2023-02-20T04:40:42.077Z,48.10
2023-02-20T04:41:42.067Z,48.62
2023-02-20T04:42:42.046Z,48.52
2023-02-20T04:43:42.047Z,48.62
2023-02-20T04:44:42.046Z,48.41
2023-02-20T04:45:42.028Z,48.62
2023-02-20T04:46:41.995Z,48.52
2023-02-20T04:47:41.996Z,49.04
2023-02-20T04:48:41.964Z,49.34
2023-02-20T04:49:41.981Z,49.14
2023-02-20T04:50:41.957Z,49.14
2023-02-20T04:51:41.946Z,49.34
2023-02-20T04:52:41.976Z,49.24
2023-02-20T04:53:41.906Z,49.14
2023-02-20T04:54:41.924Z,49.44
2023-02-20T04:55:41.889Z,49.34
2023-02-20T04:56:41.866Z,49.34
2023-02-20T04:57:41.874Z,49.44
2023-02-20T04:58:41.835Z,49.76
2023-02-20T04:59:41.872Z,49.34
2023-02-20T05:00:41.803Z,49.34
2023-02-20T05:01:41.861Z,49.44
2023-02-20T05:02:41.799Z,48.83
2023-02-20T05:03:41.777Z,48.93
2023-02-20T05:04:41.810Z,49.04
2023-02-20T05:05:41.750Z,49.14
2023-02-20T05:06:41.746Z,49.24
2023-02-20T05:07:41.720Z,49.24
2023-02-20T05:08:41.701Z,49.24
2023-02-20T05:09:41.711Z,48.93
2023-02-20T05:10:41.682Z,48.41
2023-02-20T05:11:41.688Z,48.62
2023-02-20T05:12:41.647Z,48.52
2023-02-20T05:13:41.639Z,48.31
2023-02-20T05:14:41.667Z,48.31
2023-02-20T05:15:41.634Z,48.62
2023-02-20T05:16:41.590Z,48.52
2023-02-20T05:17:41.627Z,47.69
2023-02-20T05:18:41.571Z,48.00
2023-02-20T05:19:41.575Z,47.69
2023-02-20T05:20:41.539Z,47.69
2023-02-20T05:21:41.532Z,48.00
2023-02-20T05:22:41.539Z,47.59
2023-02-20T05:23:41.508Z,47.90
2023-02-20T05:24:41.489Z,47.49
2023-02-20T05:25:41.479Z,47.59
2023-02-20T05:26:41.467Z,47.28
2023-02-20T05:27:41.468Z,46.97
2023-02-20T05:28:41.438Z,47.17
2023-02-20T05:29:41.490Z,47.07
2023-02-20T05:30:41.508Z,46.14
2023-02-20T05:31:41.467Z,46.14
2023-02-20T05:32:41.401Z,46.14
2023-02-20T05:33:41.383Z,46.14
2023-02-20T05:34:41.371Z,45.83
2023-02-20T05:35:41.363Z,46.66
2023-02-20T05:36:41.334Z,46.45
2023-02-20T05:37:41.350Z,46.56
2023-02-20T05:38:41.311Z,46.56
2023-02-20T05:39:41.311Z,46.56
2023-02-20T05:40:41.278Z,46.56
2023-02-20T05:41:41.260Z,46.97
2023-02-20T05:42:41.260Z,47.17
2023-02-20T05:43:41.238Z,47.38
2023-02-20T05:44:41.240Z,47.69
2023-02-20T05:45:41.223Z,47.59
2023-02-20T05:46:41.253Z,47.69
2023-02-20T05:47:41.239Z,47.69
2023-02-20T05:48:41.187Z,47.90
2023-02-20T05:49:41.149Z,47.59
2023-02-20T05:50:41.142Z,47.69
2023-02-20T05:51:41.131Z,47.59
2023-02-20T05:52:41.129Z,47.59
2023-02-20T05:53:41.100Z,47.59
2023-02-20T05:54:41.145Z,47.38
2023-02-20T05:55:41.070Z,47.59
2023-02-20T05:56:41.077Z,47.59
2023-02-20T05:57:41.066Z,47.69
2023-02-20T05:58:41.031Z,47.28
2023-02-20T05:59:41.049Z,46.97
2023-02-20T06:00:41.024Z,46.56
2023-02-20T06:01:40.998Z,46.77
2023-02-20T06:02:41.005Z,47.59
2023-02-20T06:03:41.003Z,47.17
2023-02-20T06:04:40.987Z,46.97
2023-02-20T06:05:40.933Z,46.45
2023-02-20T06:06:40.958Z,47.07
2023-02-20T06:07:40.913Z,46.66
2023-02-20T06:08:40.901Z,46.14
2023-02-20T06:09:40.893Z,46.14
2023-02-20T06:10:40.879Z,45.63
2023-02-20T06:11:40.877Z,45.42
2023-02-20T06:12:40.881Z,45.32
2023-02-20T06:13:40.864Z,45.63
2023-02-20T06:14:40.855Z,45.21
2023-02-20T06:15:40.804Z,45.53
2023-02-20T06:16:40.811Z,45.73
2023-02-20T06:17:40.781Z,45.13
2023-02-20T06:18:40.824Z,44.80
2023-02-20T06:19:40.749Z,44.82
2023-02-20T06:20:40.751Z,44.18
2023-02-20T06:21:40.723Z,44.72
2023-02-20T06:22:40.732Z,44.62
2023-02-20T06:23:40.714Z,44.62
2023-02-20T06:24:40.693Z,44.82
2023-02-20T06:25:40.668Z,44.82
2023-02-20T06:26:40.662Z,44.82
2023-02-20T06:27:40.643Z,45.13
2023-02-20T06:28:40.653Z,45.03
2023-02-20T06:29:40.615Z,44.93
2023-02-20T06:30:40.636Z,44.72
2023-02-20T06:31:40.666Z,44.41
2023-02-20T06:32:40.582Z,43.89
2023-02-20T06:33:40.821Z,44.10
2023-02-20T06:34:40.582Z,44.62
2023-02-20T06:35:40.541Z,44.51
2023-02-20T06:36:40.530Z,44.51
2023-02-20T06:37:40.509Z,44.72
2023-02-20T06:38:40.608Z,45.03
2023-02-20T06:39:40.504Z,44.72
2023-02-20T06:40:40.477Z,44.41
2023-02-20T06:41:40.460Z,44.93
2023-02-20T06:42:40.456Z,45.44
2023-02-20T06:43:40.440Z,45.13
2023-02-20T06:44:40.450Z,45.32
2023-02-20T06:45:40.402Z,45.23
2023-02-20T06:46:40.425Z,45.83
2023-02-20T06:47:40.379Z,46.35
2023-02-20T06:48:40.400Z,46.27
2023-02-20T06:49:40.351Z,45.65
2023-02-20T06:50:40.359Z,46.47
2023-02-20T06:51:40.353Z,46.45
2023-02-20T06:52:40.326Z,46.66
2023-02-20T06:53:40.303Z,46.45
2023-02-20T06:54:40.335Z,46.58
2023-02-20T06:55:40.284Z,45.94
2023-02-20T06:56:40.265Z,45.83
2023-02-20T06:57:40.264Z,46.06
2023-02-20T06:58:40.243Z,46.14
2023-02-20T06:59:40.280Z,46.04
2023-02-20T07:00:40.228Z,45.83
2023-02-20T07:01:40.318Z,45.73
2023-02-20T07:02:40.202Z,46.04
2023-02-20T07:03:40.162Z,46.86
2023-02-20T07:04:40.177Z,47.90
2023-02-20T07:05:40.140Z,47.90
2023-02-20T07:06:40.131Z,47.90
2023-02-20T07:07:40.117Z,48.10
2023-02-20T07:08:40.100Z,47.90
2023-02-20T07:09:40.103Z,48.83
2023-02-20T07:10:40.084Z,48.52
2023-02-20T07:11:40.063Z,48.72
2023-02-20T07:12:40.044Z,49.04
2023-02-20T07:13:40.065Z,49.24
2023-02-20T07:14:40.065Z,49.34
2023-02-20T07:15:40.086Z,49.76
2023-02-20T07:16:40.009Z,49.05
2023-02-20T07:17:39.974Z,49.55
2023-02-20T07:18:39.973Z,48.93
2023-02-20T07:19:40.001Z,48.93
2023-02-20T07:20:39.942Z,48.93
2023-02-20T07:21:39.924Z,49.34
2023-02-20T07:22:39.935Z,49.14
2023-02-20T07:23:39.903Z,49.04
2023-02-20T07:24:39.913Z,48.10
2023-02-20T07:25:39.872Z,48.31
2023-02-20T07:26:39.853Z,49.55
2023-02-20T07:27:39.851Z,49.24
2023-02-20T07:28:39.832Z,50.17
2023-02-20T07:29:39.900Z,50.48
2023-02-20T07:30:39.830Z,50.99
2023-02-20T07:31:39.866Z,50.79
2023-02-20T07:32:39.782Z,51.31
2023-02-20T07:33:39.766Z,51.41
2023-02-20T07:34:39.772Z,50.79
2023-02-20T07:35:39.745Z,51.10
2023-02-20T07:36:39.723Z,51.41
2023-02-20T07:37:39.712Z,52.34
2023-02-20T07:38:39.692Z,51.92
2023-02-20T07:39:39.738Z,51.51
2023-02-20T07:40:40.241Z,51.20
2023-02-20T07:41:39.652Z,52.55
2023-02-20T07:42:39.632Z,52.65
2023-02-20T07:43:39.632Z,52.55
2023-02-20T07:44:39.653Z,52.75
2023-02-20T07:45:39.820Z,52.95
2023-02-20T07:46:39.584Z,53.16
2023-02-20T07:47:39.592Z,53.58
2023-02-20T07:48:39.567Z,53.89
2023-02-20T07:49:39.553Z,53.47
2023-02-20T07:50:39.530Z,52.86
2023-02-20T07:51:39.526Z,52.73
2023-02-20T07:52:39.527Z,53.14
2023-02-20T07:53:39.492Z,53.55
2023-02-20T07:54:39.503Z,54.58
2023-02-20T07:55:39.457Z,54.48
2023-02-20T07:56:39.463Z,54.27
2023-02-20T07:57:39.450Z,55.41
2023-02-20T07:58:39.421Z,56.03
2023-02-20T07:59:39.443Z,55.10
2023-02-20T08:00:39.402Z,54.48
2023-02-20T08:01:39.412Z,54.17
2023-02-20T08:02:39.383Z,54.27
2023-02-20T08:03:39.352Z,54.48
2023-02-20T08:04:39.360Z,56.34
2023-02-20T08:05:48.558Z,56.23
2023-02-20T08:06:40.653Z,56.13
2023-02-20T08:07:39.299Z,56.34
2023-02-20T08:08:39.315Z,56.34
2023-02-20T08:09:39.312Z,55.62
2023-02-20T08:10:39.288Z,56.54
2023-02-20T08:11:39.243Z,56.13
2023-02-20T08:12:39.240Z,55.72
2023-02-20T08:13:39.240Z,55.82
2023-02-20T08:14:39.250Z,55.41
2023-02-20T08:15:39.200Z,56.03
2023-02-20T08:16:39.247Z,56.54
2023-02-20T08:17:46.537Z,56.73
2023-02-20T08:18:40.160Z,57.37
2023-02-20T08:19:39.153Z,56.85
2023-02-20T08:20:39.131Z,56.44
2023-02-20T08:21:39.136Z,55.41
2023-02-20T08:22:42.047Z,55.49
2023-02-20T08:23:39.084Z,57.34
2023-02-20T08:24:39.091Z,57.96
2023-02-20T08:25:39.054Z,56.93
2023-02-20T08:26:39.041Z,57.14
2023-02-20T08:27:39.028Z,57.24
2023-02-20T08:28:39.028Z,57.86
2023-02-20T08:29:39.051Z,58.17
2023-02-20T08:30:39.048Z,58.27
2023-02-20T08:31:39.079Z,58.48
2023-02-20T08:32:39.111Z,58.55
2023-02-20T08:33:38.952Z,59.07
2023-02-20T08:34:38.950Z,58.65
2023-02-20T08:35:38.975Z,59.72
2023-02-20T08:36:38.910Z,59.09
2023-02-20T08:37:38.902Z,59.17
2023-02-20T08:38:38.886Z,58.86
2023-02-20T08:39:38.889Z,58.55
2023-02-20T08:40:38.934Z,59.38
2023-02-20T08:41:38.833Z,60.51
2023-02-20T08:42:38.854Z,62.06
2023-02-20T08:43:38.812Z,60.75
2023-02-20T08:44:38.814Z,60.75
2023-02-20T08:45:38.845Z,60.23
2023-02-20T08:46:38.772Z,59.51
2023-02-20T08:47:38.761Z,60.33
2023-02-20T08:48:38.751Z,59.72
2023-02-20T08:49:38.750Z,58.69
2023-02-20T08:50:38.732Z,59.07
2023-02-20T08:51:38.719Z,59.07
2023-02-20T08:52:38.710Z,59.69
2023-02-20T08:53:38.675Z,59.69
2023-02-20T08:54:38.675Z,60.41
2023-02-20T08:55:38.662Z,61.13
2023-02-20T08:56:38.659Z,61.10
2023-02-20T08:57:38.622Z,61.00
2023-02-20T08:58:38.614Z,62.85
2023-02-20T08:59:38.594Z,61.72
2023-02-20T09:00:38.672Z,61.31
2023-02-20T09:01:38.600Z,63.06
2023-02-20T09:02:38.630Z,63.29
2023-02-20T09:03:38.555Z,62.37
2023-02-20T09:04:38.553Z,62.37
2023-02-20T09:05:39.437Z,61.41
2023-02-20T09:06:38.503Z,60.89
2023-02-20T09:07:38.489Z,61.61
2023-02-20T09:08:38.482Z,62.34
2023-02-20T09:09:38.477Z,61.41
2023-02-20T09:10:38.457Z,60.49
2023-02-20T09:11:38.453Z,60.89
2023-02-20T09:12:38.432Z,60.69
2023-02-20T09:13:38.413Z,62.85
2023-02-20T09:14:38.401Z,63.47
2023-02-20T09:15:38.386Z,62.13
2023-02-20T09:16:38.429Z,62.24
2023-02-20T09:17:38.353Z,62.75
2023-02-20T09:18:38.348Z,63.27
2023-02-20T09:19:38.349Z,62.34
2023-02-20T09:20:38.362Z,61.80
2023-02-20T09:21:38.316Z,62.82
2023-02-20T09:22:38.296Z,63.03
2023-02-20T09:23:38.285Z,64.89
2023-02-20T09:24:38.286Z,63.54
2023-02-20T09:25:38.248Z,62.52
2023-02-20T09:26:38.251Z,61.80
2023-02-20T09:27:38.225Z,62.82
2023-02-20T09:28:38.222Z,63.45
2023-02-20T09:29:38.229Z,64.47
2023-02-20T09:30:38.221Z,62.72
2023-02-20T09:31:38.216Z,63.96
2023-02-20T09:32:38.219Z,62.52
2023-02-20T09:33:38.160Z,61.69
2023-02-20T09:34:38.158Z,61.28
2023-02-20T09:35:38.130Z,64.06
2023-02-20T09:36:38.140Z,63.45
2023-02-20T09:37:38.089Z,62.52
2023-02-20T09:38:38.091Z,62.62
2023-02-20T09:39:38.059Z,62.62
2023-02-20T09:40:38.058Z,63.96
2023-02-20T09:41:38.058Z,63.31
2023-02-20T09:42:38.019Z,63.52
2023-02-20T09:43:38.031Z,62.49
2023-02-20T09:44:38.020Z,64.65
2023-02-20T09:45:38.003Z,64.58
2023-02-20T09:46:37.978Z,63.85
2023-02-20T09:47:37.951Z,62.07
2023-02-20T09:48:37.954Z,62.90
2023-02-20T09:49:37.940Z,64.14
2023-02-20T09:50:37.909Z,65.06
2023-02-20T09:51:37.919Z,65.26
2023-02-20T09:52:37.899Z,64.14
2023-02-20T09:53:37.872Z,64.24
2023-02-20T09:54:37.879Z,63.31
2023-02-20T09:55:37.850Z,64.65
2023-02-20T09:56:37.901Z,65.78
2023-02-20T09:57:37.824Z,65.78
2023-02-20T09:58:37.810Z,65.37
2023-02-20T09:59:37.801Z,64.75
2023-02-20T10:00:37.789Z,63.82
2023-02-20T10:01:37.789Z,63.72
2023-02-20T10:02:37.853Z,63.72
2023-02-20T10:03:37.762Z,63.82
2023-02-20T10:04:37.743Z,64.34
2023-02-20T10:05:37.713Z,63.62
2023-02-20T10:06:37.726Z,63.52
2023-02-20T10:07:37.680Z,63.62
2023-02-20T10:08:37.670Z,64.75
2023-02-20T10:09:37.672Z,64.65
2023-02-20T10:10:37.643Z,63.52
2023-02-20T10:11:37.631Z,63.82
2023-02-20T10:12:37.632Z,65.06
2023-02-20T10:13:37.632Z,65.16
2023-02-20T10:14:37.600Z,63.72
2023-02-20T10:15:37.621Z,62.90
2023-02-20T10:16:37.572Z,64.24
2023-02-20T10:17:37.715Z,63.79
2023-02-20T10:18:37.539Z,63.69
2023-02-20T10:19:37.532Z,65.34
2023-02-20T10:20:37.521Z,65.86
2023-02-20T10:21:37.505Z,64.83
2023-02-20T10:22:37.483Z,66.16
2023-02-20T10:23:37.476Z,66.27
2023-02-20T10:24:37.455Z,65.95
2023-02-20T10:25:37.465Z,64.51
2023-02-20T10:26:37.428Z,65.34
2023-02-20T10:27:37.434Z,65.03
2023-02-20T10:28:37.417Z,63.69
2023-02-20T10:29:37.400Z,62.66
2023-02-20T10:30:37.486Z,63.35
2023-02-20T10:31:37.422Z,65.92
2023-02-20T10:32:37.372Z,66.44
2023-02-20T10:33:37.345Z,65.92
2023-02-20T10:34:37.321Z,66.44
2023-02-20T10:35:37.315Z,66.96
2023-02-20T10:36:37.733Z,66.64
2023-02-20T10:37:47.100Z,67.60
2023-02-20T10:38:38.267Z,66.58
2023-02-20T10:39:37.276Z,65.34
2023-02-20T10:40:37.254Z,64.41
2023-02-20T10:41:37.247Z,64.83
2023-02-20T10:42:37.235Z,63.07
2023-02-20T10:43:37.200Z,64.93
2023-02-20T10:44:49.908Z,65.83
2023-02-20T10:45:38.188Z,66.03
2023-02-20T10:46:48.497Z,66.75
2023-02-20T10:47:38.210Z,66.54
2023-02-20T10:48:37.130Z,67.16
2023-02-20T10:49:37.123Z,66.16
2023-02-20T10:50:37.114Z,66.16
2023-02-20T10:51:37.131Z,64.90
2023-02-20T10:52:37.122Z,66.03
2023-02-20T10:53:37.070Z,68.08
2023-02-20T10:54:37.048Z,68.08
2023-02-20T10:55:37.078Z,68.50
2023-02-20T10:56:37.026Z,66.44
2023-02-20T10:57:37.011Z,66.96
2023-02-20T10:58:37.009Z,66.75
2023-02-20T10:59:37.006Z,66.13
2023-02-20T11:00:36.996Z,66.85
2023-02-20T11:01:37.046Z,65.89
2023-02-20T11:02:36.967Z,68.77
2023-02-20T11:03:36.944Z,68.19
2023-02-20T11:04:36.920Z,67.36
2023-02-20T11:05:36.925Z,66.75
2023-02-20T11:06:36.883Z,67.68
2023-02-20T11:07:36.876Z,67.47
2023-02-20T11:08:36.856Z,67.44
2023-02-20T11:09:36.865Z,67.03
2023-02-20T11:10:36.837Z,68.57
2023-02-20T11:11:36.833Z,66.61
2023-02-20T11:12:36.810Z,67.33
2023-02-20T11:13:36.794Z,67.54
2023-02-20T11:14:41.711Z,68.67
2023-02-20T11:15:37.782Z,68.33
2023-02-20T11:16:36.788Z,71.51
2023-02-20T11:17:36.745Z,69.18
2023-02-20T11:18:36.756Z,69.39
2023-02-20T11:19:36.749Z,70.11
2023-02-20T11:20:36.695Z,70.62
2023-02-20T11:21:36.685Z,69.80
2023-02-20T11:22:36.664Z,68.77
2023-02-20T11:23:36.682Z,68.37
2023-02-20T11:24:36.658Z,67.33
2023-02-20T11:25:36.625Z,69.49
2023-02-20T11:26:36.628Z,70.21
2023-02-20T11:27:36.601Z,68.98
2023-02-20T11:28:36.587Z,68.16
2023-02-20T11:29:36.578Z,66.72
2023-02-20T11:30:36.624Z,66.72
2023-02-20T11:31:36.714Z,68.67
2023-02-20T11:32:36.534Z,67.85
2023-02-20T11:33:36.538Z,67.06
2023-02-20T11:34:36.520Z,66.75
2023-02-20T11:35:36.497Z,65.92
2023-02-20T11:36:36.473Z,65.80
2023-02-20T11:37:49.178Z,66.54
2023-02-20T11:38:37.489Z,66.34
2023-02-20T11:39:36.457Z,66.34
2023-02-20T11:40:36.426Z,65.59
2023-02-20T11:41:36.430Z,66.34
2023-02-20T11:42:36.412Z,64.18
2023-02-20T11:43:36.405Z,63.84
2023-02-20T11:44:36.384Z,65.08
2023-02-20T11:45:36.365Z,66.20
2023-02-20T11:46:36.376Z,65.38
2023-02-20T11:47:36.344Z,65.59
2023-02-20T11:48:36.341Z,64.87
2023-02-20T11:49:36.305Z,66.41
2023-02-20T11:50:36.293Z,64.25
2023-02-20T11:51:36.304Z,65.31
2023-02-20T11:52:36.273Z,64.18
2023-02-20T11:53:36.285Z,63.25
2023-02-20T11:54:36.258Z,62.84
2023-02-20T11:55:36.224Z,63.67
2023-02-20T11:56:36.217Z,64.25
2023-02-20T11:57:36.229Z,64.15
2023-02-20T11:58:36.216Z,65.17
2023-02-20T11:59:36.172Z,64.46
2023-02-20T12:00:36.183Z,65.69
2023-02-20T12:01:36.141Z,66.72
2023-02-20T12:02:36.151Z,63.74
2023-02-20T12:03:36.158Z,63.22
2023-02-20T12:04:36.101Z,64.90
2023-02-20T12:05:36.131Z,64.90
2023-02-20T12:06:36.073Z,62.95
2023-02-20T12:07:36.062Z,63.46
2023-02-20T12:08:36.104Z,62.63
2023-02-20T12:09:36.037Z,62.23
2023-02-20T12:10:36.018Z,62.74
2023-02-20T12:11:36.015Z,61.91
2023-02-20T12:12:35.999Z,62.74
2023-02-20T12:13:35.999Z,62.84
2023-02-20T12:14:35.959Z,61.71
2023-02-20T12:15:35.957Z,62.95
2023-02-20T12:16:36.054Z,61.81
2023-02-20T12:17:36.123Z,60.89
2023-02-20T12:18:35.909Z,60.99
2023-02-20T12:19:35.923Z,61.81
2023-02-20T12:20:35.880Z,62.02
2023-02-20T12:21:35.890Z,62.33
2023-02-20T12:22:35.870Z,61.61
2023-02-20T12:23:35.842Z,61.81
2023-02-20T12:24:35.827Z,62.02
2023-02-20T12:25:35.819Z,62.43
2023-02-20T12:26:38.306Z,61.40
2023-02-20T12:27:35.795Z,61.30
2023-02-20T12:28:35.771Z,61.61
2023-02-20T12:29:35.770Z,61.71
2023-02-20T12:30:35.803Z,60.17
2023-02-20T12:31:35.897Z,60.27
2023-02-20T12:32:35.724Z,60.99
2023-02-20T12:33:35.723Z,60.68
2023-02-20T12:34:35.725Z,60.78
2023-02-20T12:35:35.686Z,60.47
2023-02-20T12:36:35.692Z,60.09
2023-02-20T12:37:35.656Z,59.17
2023-02-20T12:38:35.646Z,58.65
2023-02-20T12:39:35.629Z,58.52
2023-02-20T12:40:35.613Z,58.31
2023-02-20T12:41:35.602Z,58.73
2023-02-20T12:42:35.640Z,59.55
2023-02-20T12:43:35.580Z,59.24
2023-02-20T12:44:35.594Z,59.14
2023-02-20T12:45:35.552Z,60.58
2023-02-20T12:46:35.569Z,60.17
2023-02-20T12:47:35.587Z,59.65
2023-02-20T12:48:35.504Z,59.24
2023-02-20T12:49:35.536Z,58.31
2023-02-20T12:50:35.475Z,58.39
2023-02-20T12:51:35.476Z,60.06
2023-02-20T12:52:35.465Z,59.24
2023-02-20T12:53:35.445Z,58.42
2023-02-20T12:54:35.435Z,58.08
2023-02-20T12:55:35.426Z,58.93
2023-02-20T12:56:35.404Z,59.11